Map

Track Data

SID SEASON NUMBER BASIN SUBBASIN NAME ISO_TIME NATURE LAT LON WMO_WIND WMO_PRES WMO_AGENCY TRACK_TYPE DIST2LAND LANDFALL IFLAG USA_AGENCY USA_ATCF_ID USA_LAT USA_LON USA_RECORD USA_STATUS USA_WIND USA_PRES USA_SSHS USA_R34_NE USA_R34_SE USA_R34_SW USA_R34_NW USA_R50_NE USA_R50_SE USA_R50_SW USA_R50_NW USA_R64_NE USA_R64_SE USA_R64_SW USA_R64_NW USA_POCI USA_ROCI USA_RMW USA_EYE TOKYO_LAT TOKYO_LON TOKYO_GRADE TOKYO_WIND TOKYO_PRES TOKYO_R50_DIR TOKYO_R50_LONG TOKYO_R50_SHORT TOKYO_R30_DIR TOKYO_R30_LONG TOKYO_R30_SHORT TOKYO_LAND CMA_LAT CMA_LON CMA_CAT CMA_WIND CMA_PRES HKO_LAT HKO_LON HKO_CAT HKO_WIND HKO_PRES NEWDELHI_LAT NEWDELHI_LON NEWDELHI_GRADE NEWDELHI_WIND NEWDELHI_PRES NEWDELHI_CI NEWDELHI_DP NEWDELHI_POCI REUNION_LAT REUNION_LON REUNION_TYPE REUNION_WIND REUNION_PRES REUNION_TNUM REUNION_CI REUNION_RMW REUNION_R34_NE REUNION_R34_SE REUNION_R34_SW REUNION_R34_NW REUNION_R50_NE REUNION_R50_SE REUNION_R50_SW REUNION_R50_NW REUNION_R64_NE REUNION_R64_SE REUNION_R64_SW REUNION_R64_NW BOM_LAT BOM_LON BOM_TYPE BOM_WIND BOM_PRES BOM_TNUM BOM_CI BOM_RMW BOM_R34_NE BOM_R34_SE BOM_R34_SW BOM_R34_NW BOM_R50_NE BOM_R50_SE BOM_R50_SW BOM_R50_NW BOM_R64_NE BOM_R64_SE BOM_R64_SW BOM_R64_NW BOM_ROCI BOM_POCI BOM_EYE BOM_POS_METHOD BOM_PRES_METHOD NADI_LAT NADI_LON NADI_CAT NADI_WIND NADI_PRES WELLINGTON_LAT WELLINGTON_LON WELLINGTON_WIND WELLINGTON_PRES DS824_LAT DS824_LON DS824_STAGE DS824_WIND DS824_PRES TD9636_LAT TD9636_LON TD9636_STAGE TD9636_WIND TD9636_PRES TD9635_LAT TD9635_LON TD9635_WIND TD9635_PRES TD9635_ROCI NEUMANN_LAT NEUMANN_LON NEUMANN_CLASS NEUMANN_WIND NEUMANN_PRES MLC_LAT MLC_LON MLC_CLASS MLC_WIND MLC_PRES USA_GUST BOM_GUST BOM_GUST_PER REUNION_GUST REUNION_GUST_PER USA_SEAHGT USA_SEARAD_NE USA_SEARAD_SE USA_SEARAD_SW USA_SEARAD_NW STORM_SPEED STORM_DIR
1935056S16061 1935 14 SI MM NOT_NAMED 1935-02-25 00:00:00 TS -16.3000 61.4000 spur-other 577 525 _________O____ -1 -16.3000 61.4000 TC 35 12 246
1935056S16061 1935 14 SI MM NOT_NAMED 1935-02-25 03:00:00 TS -16.5454 60.8378 spur-other 518 459 _________P____ -1 -16.5454 60.8378 TC 35 12 245
1935056S16061 1935 14 SI MM NOT_NAMED 1935-02-25 06:00:00 TS -16.8000 60.3000 spur-other 459 402 _________O____ -1 -16.8000 60.3000 TC 35 11 242
1935056S16061 1935 14 SI MM NOT_NAMED 1935-02-25 09:00:00 TS -17.0773 59.7997 spur-other 402 345 _________P____ -1 -17.0773 59.7997 TC 35 11 238
1935056S16061 1935 14 SI MM NOT_NAMED 1935-02-25 12:00:00 TS -17.4000 59.3000 spur-other 345 288 _________O____ -1 -17.4000 59.3000 TC 35 12 237
1935056S16061 1935 14 SI MM NOT_NAMED 1935-02-25 15:00:00 TS -17.7627 58.7126 spur-other 277 218 _________P____ -1 -17.7627 58.7126 TC 35 13 233
1935056S16061 1935 14 SI MM NOT_NAMED 1935-02-25 18:00:00 TS -18.2000 58.2000 spur-other 218 169 _________O____ -1 -18.2000 58.2000 TC 35 12 223
1935056S16061 1935 14 SI MM NOT_NAMED 1935-02-25 21:00:00 TS -18.6299 57.8600 spur-other 169 89 _________P____ -1 -18.6299 57.8600 TC 35 12 203
1935056S16061 1935 14 SI MM NOT_NAMED 1935-02-26 00:00:00 TS -19.3000 57.7000 spur-other 89 0 _________O____ -1 -19.3000 57.7000 TC 35 18 185
1935056S16061 1935 14 SI MM NOT_NAMED 1935-02-26 03:00:00 TS -20.4101 57.6971 spur-other 0 0 _________P____ -1 -20.4101 57.6971 TC 35 24 178
1935056S16061 1935 14 SI MM NOT_NAMED 1935-02-26 06:00:00 TS -21.7000 57.8000 spur-other 134 134 _________O____ -1 -21.7000 57.8000 TC 35 25 176
1935056S16061 1935 14 SI MM NOT_NAMED 1935-02-26 09:00:00 TS -22.8725 57.8998 spur-other 269 269 _________P____ -1 -22.8725 57.8998 TC 35 23 175
1935056S16061 1935 14 SI MM NOT_NAMED 1935-02-26 12:00:00 TS -24.0000 58.0000 spur-other 376 376 _________O____ -1 -24.0000 58.0000 TC 35 22 176
1935056S16061 1935 14 SI MM NOT_NAMED 1935-02-26 15:00:00 TS -25.0649 58.0578 spur-other 485 485 _________P____ -1 -25.0649 58.0578 TC 35 21 178
1935056S16061 1935 14 SI MM NOT_NAMED 1935-02-26 18:00:00 TS -26.1000 58.1000 spur-other 583 583 _________O____ -1 -26.1000 58.1000 TC 35 21 178
1935056S16061 1935 14 SI MM NOT_NAMED 1935-02-26 21:00:00 TS -27.1800 58.1574 spur-other 699 699 _________P____ -1 -27.1800 58.1574 TC 35 21 178
1935056S16061 1935 14 SI MM NOT_NAMED 1935-02-27 00:00:00 TS -28.2000 58.2000 spur-other 803 803 _________O____ -1 -28.2000 58.2000 TC 35 19 179
1935056S16061 1935 14 SI MM NOT_NAMED 1935-02-27 03:00:00 TS -29.0874 58.2004 spur-other 898 898 _________P____ -1 -29.0874 58.2004 TC 35 17 0
1935056S16061 1935 14 SI MM NOT_NAMED 1935-02-27 06:00:00 TS -29.9000 58.2000 spur-other 984 984 _________O____ -1 -29.9000 58.2000 TC 35 16 178
1935056S16061 1935 14 SI MM NOT_NAMED 1935-02-27 09:00:00 TS -30.6925 58.2424 spur-other 1070 1070 _________P____ -1 -30.6925 58.2424 TC 35 16 177
1935056S16061 1935 14 SI MM NOT_NAMED 1935-02-27 12:00:00 TS -31.5000 58.3000 spur-other 1159 1159 _________O____ -1 -31.5000 58.3000 TC 35 17 177
1935056S16061 1935 14 SI MM NOT_NAMED 1935-02-27 15:00:00 TS -32.3925 58.3501 spur-other 1259 1259 _________P____ -1 -32.3925 58.3501 TC 35 18 177
1935056S16061 1935 14 SI MM NOT_NAMED 1935-02-27 18:00:00 TS -33.3000 58.4000 spur-other 1357 1357 _________O____ -1 -33.3000 58.4000 TC 35 18 177
1935056S16061 1935 14 SI MM NOT_NAMED 1935-02-27 21:00:00 TS -34.1650 58.4498 spur-other 1455 1455 _________P____ -1 -34.1650 58.4498 TC 35 17 177
1935056S16061 1935 14 SI MM NOT_NAMED 1935-02-28 00:00:00 TS -35.0000 58.5000 spur-other 1544 _________O____ -1 -35.0000 58.5000 TC 35 17 178

About IBTrACS Database

This database is a web-friendly format of International Best Track Archive for Climate Stewardship (IBTrACS), a global best track data archive curated by NOAA dating back to 1842.

Updated: 2021-10-21